Terminal Aerodrome Forecast
Issued by NWS

Home | Current Version | Previous Version | Text Only | Print | Product List | Glossary Off
Versions: 1 2 3 4 5 6 7 8 9 10 11 12

889
FTUS43 KMPX 251738
TAFAXN
TAF
KAXN 251738Z 2518/2618 15016G24KT P6SM BKN040
     FM252300 14010KT P6SM VCSH OVC050
     FM260600 18008KT P6SM BKN050
     FM261500 26009KT P6SM SCT100=

USA.gov is the U.S. government's official web portal to all federal, state and local government web resources and services.